createdAt,value
2023-05-14T00:00:09.672Z,547.00
2023-05-14T00:01:09.735Z,549.00
2023-05-14T00:02:09.856Z,546.00
2023-05-14T00:03:09.987Z,546.00
2023-05-14T00:04:10.014Z,546.00
2023-05-14T00:05:10.045Z,548.00
2023-05-14T00:06:10.106Z,545.00
2023-05-14T00:07:10.777Z,549.00
2023-05-14T00:08:10.263Z,548.00
2023-05-14T00:09:10.312Z,548.00
2023-05-14T00:10:10.432Z,550.00
2023-05-14T00:11:10.454Z,549.00
2023-05-14T00:12:10.535Z,546.00
2023-05-14T00:13:10.605Z,549.00
2023-05-14T00:14:10.711Z,545.00
2023-05-14T00:15:10.764Z,546.00
2023-05-14T00:16:10.925Z,546.00
2023-05-14T00:17:10.899Z,546.00
2023-05-14T00:18:10.961Z,547.00
2023-05-14T00:19:11.100Z,547.00
2023-05-14T00:20:11.115Z,545.00
2023-05-14T00:21:11.204Z,545.00
2023-05-14T00:22:11.262Z,547.00
2023-05-14T00:23:11.795Z,545.00
2023-05-14T00:24:11.418Z,545.00
2023-05-14T00:25:11.492Z,544.00
2023-05-14T00:26:11.569Z,545.00
2023-05-14T00:27:11.643Z,545.00
2023-05-14T00:28:11.713Z,544.00
2023-05-14T00:29:11.799Z,544.00
2023-05-14T00:30:11.876Z,544.00
2023-05-14T00:31:11.987Z,544.00
2023-05-14T00:32:12.032Z,544.00
2023-05-14T00:33:12.100Z,543.00
2023-05-14T00:34:12.168Z,542.00
2023-05-14T00:35:12.283Z,543.00
2023-05-14T00:36:12.313Z,543.00
2023-05-14T00:37:12.394Z,542.00
2023-05-14T00:38:12.474Z,540.00
2023-05-14T00:39:12.548Z,541.00
2023-05-14T00:40:12.634Z,543.00
2023-05-14T00:41:12.708Z,543.00
2023-05-14T00:42:12.755Z,543.00
2023-05-14T00:43:12.832Z,543.00
2023-05-14T00:44:12.906Z,543.00
2023-05-14T00:45:12.990Z,541.00
2023-05-14T00:46:13.081Z,544.00
2023-05-14T00:47:13.215Z,544.00
2023-05-14T00:48:13.227Z,541.00
2023-05-14T00:49:13.324Z,544.00
2023-05-14T00:50:13.375Z,541.00
2023-05-14T00:51:13.456Z,541.00
2023-05-14T00:52:13.528Z,541.00
2023-05-14T00:53:13.610Z,542.00
2023-05-14T00:54:13.691Z,541.00
2023-05-14T00:55:13.774Z,541.00
2023-05-14T00:56:13.856Z,542.00
2023-05-14T00:57:13.953Z,542.00
2023-05-14T00:58:14.031Z,541.00
2023-05-14T00:59:14.081Z,542.00
2023-05-14T01:00:14.164Z,541.00
2023-05-14T01:01:14.271Z,539.00
2023-05-14T01:02:14.330Z,539.00
2023-05-14T01:03:14.568Z,539.00
2023-05-14T01:04:14.483Z,540.00
2023-05-14T01:05:14.549Z,540.00
2023-05-14T01:06:14.630Z,542.00
2023-05-14T01:07:14.703Z,540.00
2023-05-14T01:08:14.790Z,538.00
2023-05-14T01:09:14.859Z,539.00
2023-05-14T01:10:14.937Z,538.00
2023-05-14T01:11:15.016Z,537.00
2023-05-14T01:12:15.096Z,536.00
2023-05-14T01:13:15.229Z,539.00
2023-05-14T01:14:15.261Z,538.00
2023-05-14T01:15:15.362Z,539.00
2023-05-14T01:16:15.509Z,538.00
2023-05-14T01:17:15.490Z,535.00
2023-05-14T01:18:15.562Z,537.00
2023-05-14T01:19:15.674Z,536.00
2023-05-14T01:20:15.715Z,539.00
2023-05-14T01:21:15.796Z,539.00
2023-05-14T01:22:15.871Z,533.00
2023-05-14T01:23:15.952Z,536.00
2023-05-14T01:24:16.036Z,536.00
2023-05-14T01:25:16.113Z,537.00
2023-05-14T01:26:16.183Z,535.00
2023-05-14T01:27:16.255Z,536.00
2023-05-14T01:28:16.335Z,536.00
2023-05-14T01:29:16.418Z,537.00
2023-05-14T01:30:16.503Z,538.00
2023-05-14T01:31:16.619Z,535.00
2023-05-14T01:32:16.673Z,536.00
2023-05-14T01:33:16.730Z,533.00
2023-05-14T01:34:16.802Z,535.00
2023-05-14T01:35:16.887Z,536.00
2023-05-14T01:36:16.960Z,536.00
2023-05-14T01:37:17.048Z,535.00
2023-05-14T01:38:17.113Z,536.00
2023-05-14T01:39:17.196Z,534.00
2023-05-14T01:40:17.285Z,536.00
2023-05-14T01:41:17.363Z,536.00
2023-05-14T01:42:17.442Z,533.00
2023-05-14T01:43:17.542Z,538.00
2023-05-14T01:44:17.615Z,533.00
2023-05-14T01:45:17.697Z,536.00
2023-05-14T01:46:17.813Z,534.00
2023-05-14T01:47:17.858Z,536.00
2023-05-14T01:48:17.943Z,532.00
2023-05-14T01:49:18.014Z,533.00
2023-05-14T01:50:18.087Z,536.00
2023-05-14T01:51:18.168Z,531.00
2023-05-14T01:52:18.252Z,536.00
2023-05-14T01:53:18.349Z,533.00
2023-05-14T01:54:18.427Z,531.00
2023-05-14T01:55:18.506Z,533.00
2023-05-14T01:56:18.581Z,533.00
2023-05-14T01:57:18.663Z,531.00
2023-05-14T01:58:18.746Z,533.00
2023-05-14T01:59:18.823Z,531.00
2023-05-14T02:00:18.915Z,533.00
2023-05-14T02:01:19.043Z,531.00
2023-05-14T02:02:19.081Z,534.00
2023-05-14T02:03:19.163Z,532.00
2023-05-14T02:04:19.387Z,534.00
2023-05-14T02:05:19.325Z,530.00
2023-05-14T02:06:19.412Z,531.00
2023-05-14T02:07:19.502Z,533.00
2023-05-14T02:08:19.584Z,531.00
2023-05-14T02:09:19.665Z,536.00
2023-05-14T02:10:19.825Z,531.00
2023-05-14T02:11:19.827Z,535.00
2023-05-14T02:12:19.910Z,531.00
2023-05-14T02:13:19.998Z,532.00
2023-05-14T02:14:20.825Z,531.00
2023-05-14T02:15:20.172Z,531.00
2023-05-14T02:16:20.280Z,528.00
2023-05-14T02:17:20.343Z,529.00
2023-05-14T02:18:20.422Z,530.00
2023-05-14T02:19:20.509Z,529.00
2023-05-14T02:20:20.615Z,530.00
2023-05-14T02:21:20.689Z,529.00
2023-05-14T02:22:20.753Z,531.00
2023-05-14T02:23:28.069Z,529.00
2023-05-14T02:24:21.851Z,530.00
2023-05-14T02:25:20.866Z,530.00
2023-05-14T02:26:20.877Z,530.00
2023-05-14T02:27:20.886Z,530.00
2023-05-14T02:28:20.973Z,531.00
2023-05-14T02:29:20.906Z,529.00
2023-05-14T02:30:21.056Z,530.00
2023-05-14T02:31:21.002Z,529.00
2023-05-14T02:32:21.041Z,529.00
2023-05-14T02:33:21.134Z,526.00
2023-05-14T02:34:21.831Z,532.00
2023-05-14T02:35:21.229Z,527.00
2023-05-14T02:36:21.342Z,528.00
2023-05-14T02:37:21.413Z,529.00
2023-05-14T02:38:21.489Z,529.00
2023-05-14T02:39:21.584Z,529.00
2023-05-14T02:40:21.918Z,528.00
2023-05-14T02:41:21.738Z,529.00
2023-05-14T02:42:21.832Z,526.00
2023-05-14T02:43:21.919Z,529.00
2023-05-14T02:44:22.000Z,527.00
2023-05-14T02:45:22.091Z,526.00
2023-05-14T02:46:22.208Z,528.00
2023-05-14T02:47:22.290Z,531.00
2023-05-14T02:48:22.342Z,529.00
2023-05-14T02:49:22.432Z,530.00
2023-05-14T02:50:22.685Z,527.00
2023-05-14T02:51:22.641Z,526.00
2023-05-14T02:52:22.701Z,525.00
2023-05-14T02:53:22.973Z,525.00
2023-05-14T02:54:22.933Z,525.00
2023-05-14T02:55:22.949Z,526.00
2023-05-14T02:56:23.033Z,527.00
2023-05-14T02:57:23.128Z,526.00
2023-05-14T02:58:25.627Z,528.00
2023-05-14T02:59:24.233Z,528.00
2023-05-14T03:00:23.389Z,529.00
2023-05-14T03:01:23.389Z,529.00
2023-05-14T03:02:23.942Z,527.00
2023-05-14T03:03:23.422Z,527.00
2023-05-14T03:04:23.306Z,525.00
2023-05-14T03:05:23.308Z,528.00
2023-05-14T03:06:23.328Z,527.00
2023-05-14T03:07:23.327Z,527.00
2023-05-14T03:08:23.385Z,524.00
2023-05-14T03:09:23.460Z,523.00
2023-05-14T03:10:23.643Z,528.00
2023-05-14T03:11:23.591Z,525.00
2023-05-14T03:12:23.669Z,527.00
2023-05-14T03:13:23.746Z,522.00
2023-05-14T03:14:23.828Z,525.00
2023-05-14T03:15:23.900Z,525.00
2023-05-14T03:16:24.034Z,524.00
2023-05-14T03:17:24.081Z,520.00
2023-05-14T03:18:24.309Z,526.00
2023-05-14T03:19:24.178Z,522.00
2023-05-14T03:20:24.468Z,524.00
2023-05-14T03:21:24.317Z,525.00
2023-05-14T03:22:24.388Z,524.00
2023-05-14T03:23:25.355Z,522.00
2023-05-14T03:24:24.538Z,524.00
2023-05-14T03:25:24.612Z,524.00
2023-05-14T03:26:24.682Z,523.00
2023-05-14T03:27:24.745Z,522.00
2023-05-14T03:28:24.807Z,521.00
2023-05-14T03:29:24.887Z,524.00
2023-05-14T03:30:25.267Z,521.00
2023-05-14T03:31:25.148Z,524.00
2023-05-14T03:32:25.092Z,525.00
2023-05-14T03:33:25.162Z,523.00
2023-05-14T03:34:25.371Z,520.00
2023-05-14T03:35:25.306Z,521.00
2023-05-14T03:36:25.875Z,522.00
2023-05-14T03:37:25.443Z,522.00
2023-05-14T03:38:25.482Z,522.00
2023-05-14T03:39:25.554Z,520.00
2023-05-14T03:40:25.752Z,517.00
2023-05-14T03:41:25.700Z,521.00
2023-05-14T03:42:25.785Z,521.00
2023-05-14T03:43:25.843Z,520.00
2023-05-14T03:44:25.918Z,520.00
2023-05-14T03:45:25.995Z,523.00
2023-05-14T03:46:26.074Z,520.00
2023-05-14T03:47:26.370Z,520.00
2023-05-14T03:48:26.317Z,521.00
2023-05-14T03:49:26.302Z,521.00
2023-05-14T03:50:26.362Z,519.00
2023-05-14T03:51:26.439Z,518.00
2023-05-14T03:52:26.510Z,515.00
2023-05-14T03:53:26.584Z,521.00
2023-05-14T03:54:26.692Z,518.00
2023-05-14T03:55:26.726Z,518.00
2023-05-14T03:56:26.813Z,518.00
2023-05-14T03:57:26.883Z,518.00
2023-05-14T03:58:26.954Z,521.00
2023-05-14T03:59:27.016Z,521.00
2023-05-14T04:00:27.150Z,518.00
2023-05-14T04:01:27.176Z,519.00
2023-05-14T04:02:27.282Z,516.00
2023-05-14T04:03:27.485Z,516.00
2023-05-14T04:04:27.447Z,519.00
2023-05-14T04:05:27.445Z,518.00
2023-05-14T04:06:27.527Z,519.00
2023-05-14T04:07:27.594Z,519.00
2023-05-14T04:08:27.666Z,519.00
2023-05-14T04:09:27.741Z,519.00
2023-05-14T04:10:27.807Z,516.00
2023-05-14T04:11:27.874Z,518.00
2023-05-14T04:12:27.948Z,518.00
2023-05-14T04:13:28.030Z,517.00
2023-05-14T04:14:28.158Z,522.00
2023-05-14T04:15:28.156Z,516.00
2023-05-14T04:16:28.280Z,519.00
2023-05-14T04:17:28.347Z,518.00
2023-05-14T04:18:28.424Z,518.00
2023-05-14T04:19:28.457Z,517.00
2023-05-14T04:20:28.533Z,516.00
2023-05-14T04:21:28.616Z,517.00
2023-05-14T04:22:28.681Z,517.00
2023-05-14T04:23:28.769Z,517.00
2023-05-14T04:24:28.833Z,519.00
2023-05-14T04:25:28.919Z,521.00
2023-05-14T04:26:28.996Z,515.00
2023-05-14T04:27:29.057Z,518.00
2023-05-14T04:28:29.144Z,516.00
2023-05-14T04:29:29.208Z,520.00
2023-05-14T04:30:29.261Z,518.00
2023-05-14T04:31:29.425Z,519.00
2023-05-14T04:32:29.439Z,516.00
2023-05-14T04:33:29.528Z,519.00
2023-05-14T04:34:29.567Z,514.00
2023-05-14T04:35:29.633Z,518.00
2023-05-14T04:36:29.713Z,515.00
2023-05-14T04:37:29.787Z,513.00
2023-05-14T04:38:29.860Z,514.00
2023-05-14T04:39:29.934Z,515.00
2023-05-14T04:40:30.013Z,519.00
2023-05-14T04:41:30.162Z,516.00
2023-05-14T04:42:30.148Z,514.00
2023-05-14T04:43:30.219Z,514.00
2023-05-14T04:44:30.286Z,515.00
2023-05-14T04:45:31.327Z,515.00
2023-05-14T04:46:30.557Z,514.00
2023-05-14T04:47:30.502Z,514.00
2023-05-14T04:48:30.564Z,512.00
2023-05-14T04:49:30.653Z,513.00
2023-05-14T04:50:30.720Z,514.00
2023-05-14T04:51:30.794Z,513.00
2023-05-14T04:52:30.862Z,512.00
2023-05-14T04:53:30.929Z,515.00
2023-05-14T04:54:31.076Z,515.00
2023-05-14T04:55:31.106Z,515.00
2023-05-14T04:56:31.149Z,511.00
2023-05-14T04:57:31.226Z,514.00
2023-05-14T04:58:33.744Z,515.00
2023-05-14T04:59:31.305Z,518.00
2023-05-14T05:00:31.316Z,515.00
2023-05-14T05:01:31.361Z,514.00
2023-05-14T05:02:31.390Z,513.00
2023-05-14T05:03:31.400Z,517.00
2023-05-14T05:04:31.394Z,511.00
2023-05-14T05:05:31.405Z,514.00
2023-05-14T05:06:31.422Z,514.00
2023-05-14T05:07:31.450Z,511.00
2023-05-14T05:08:31.468Z,514.00
2023-05-14T05:09:31.487Z,512.00
2023-05-14T05:10:31.507Z,511.00
2023-05-14T05:11:31.520Z,511.00
2023-05-14T05:12:31.543Z,510.00
2023-05-14T05:13:31.685Z,515.00
2023-05-14T05:14:31.565Z,514.00
2023-05-14T05:15:31.605Z,512.00
2023-05-14T05:16:31.723Z,512.00
2023-05-14T05:17:31.642Z,511.00
2023-05-14T05:18:31.681Z,511.00
2023-05-14T05:19:42.586Z,511.00
2023-05-14T05:20:32.675Z,511.00
2023-05-14T05:21:31.703Z,512.00
2023-05-14T05:22:31.703Z,513.00
2023-05-14T05:23:32.416Z,513.00
2023-05-14T05:24:31.734Z,512.00
2023-05-14T05:25:31.765Z,514.00
2023-05-14T05:26:31.789Z,511.00
2023-05-14T05:27:31.775Z,512.00
2023-05-14T05:28:31.847Z,513.00
2023-05-14T05:29:31.812Z,509.00
2023-05-14T05:30:31.879Z,509.00
2023-05-14T05:31:32.006Z,511.00
2023-05-14T05:32:32.068Z,510.00
2023-05-14T05:33:32.117Z,512.00
2023-05-14T05:34:32.191Z,512.00
2023-05-14T05:35:32.221Z,511.00
2023-05-14T05:36:32.272Z,510.00
2023-05-14T05:37:32.351Z,515.00
2023-05-14T05:38:32.429Z,511.00
2023-05-14T05:39:32.481Z,510.00
2023-05-14T05:40:32.566Z,510.00
2023-05-14T05:41:32.637Z,508.00
2023-05-14T05:42:32.732Z,508.00
2023-05-14T05:43:32.797Z,509.00
2023-05-14T05:44:32.849Z,509.00
2023-05-14T05:45:32.924Z,511.00
2023-05-14T05:46:33.090Z,508.00
2023-05-14T05:47:33.105Z,506.00
2023-05-14T05:48:33.154Z,509.00
2023-05-14T05:49:33.217Z,510.00
2023-05-14T05:50:33.254Z,511.00
2023-05-14T05:51:33.314Z,509.00
2023-05-14T05:52:33.383Z,507.00
2023-05-14T05:53:33.441Z,510.00
2023-05-14T05:54:33.514Z,508.00
2023-05-14T05:55:33.587Z,509.00
2023-05-14T05:56:33.682Z,509.00
2023-05-14T05:57:33.699Z,509.00
2023-05-14T05:58:33.769Z,509.00
2023-05-14T05:59:33.856Z,512.00
2023-05-14T06:00:34.910Z,507.00
2023-05-14T06:01:34.022Z,508.00
2023-05-14T06:02:34.155Z,507.00
2023-05-14T06:03:34.187Z,510.00
2023-05-14T06:04:34.265Z,507.00
2023-05-14T06:05:34.417Z,510.00
2023-05-14T06:06:34.434Z,511.00
2023-05-14T06:07:34.571Z,508.00
2023-05-14T06:08:34.600Z,506.00
2023-05-14T06:09:34.747Z,512.00
2023-05-14T06:10:34.759Z,509.00
2023-05-14T06:11:34.805Z,509.00
2023-05-14T06:12:34.879Z,510.00
2023-05-14T06:13:34.940Z,510.00
2023-05-14T06:14:35.017Z,509.00
2023-05-14T06:15:35.076Z,510.00
2023-05-14T06:16:35.145Z,509.00
2023-05-14T06:17:35.273Z,511.00
2023-05-14T06:18:35.326Z,510.00
2023-05-14T06:19:35.366Z,508.00
2023-05-14T06:20:35.449Z,510.00
2023-05-14T06:21:35.478Z,509.00
2023-05-14T06:22:35.533Z,510.00
2023-05-14T06:23:35.585Z,509.00
2023-05-14T06:24:35.651Z,511.00
2023-05-14T06:25:35.654Z,509.00
2023-05-14T06:26:35.687Z,506.00
2023-05-14T06:27:35.737Z,506.00
2023-05-14T06:29:54.765Z,500.00
2023-05-14T06:30:54.772Z,500.00
2023-05-14T06:31:54.771Z,500.00
2023-05-14T06:32:54.772Z,500.00
2023-05-14T06:33:54.747Z,500.00
2023-05-14T06:34:54.733Z,500.00
2023-05-14T06:35:54.724Z,502.00
2023-05-14T06:36:54.713Z,500.00
2023-05-14T06:37:54.704Z,502.00
2023-05-14T06:38:54.692Z,502.00
2023-05-14T06:39:56.998Z,500.00
2023-05-14T06:40:54.676Z,500.00
2023-05-14T06:41:54.657Z,500.00
2023-05-14T06:42:54.652Z,501.00
2023-05-14T06:43:54.638Z,499.00
2023-05-14T06:44:54.660Z,498.00
2023-05-14T06:45:54.633Z,501.00
2023-05-14T06:46:54.612Z,502.00
2023-05-14T06:47:54.749Z,502.00
2023-05-14T06:48:55.712Z,500.00
2023-05-14T06:49:54.567Z,500.00
2023-05-14T06:50:54.558Z,500.00
2023-05-14T06:51:54.548Z,502.00
2023-05-14T06:52:54.534Z,501.00
2023-05-14T06:53:54.525Z,502.00
2023-05-14T06:54:54.517Z,500.00
2023-05-14T06:55:54.494Z,501.00
2023-05-14T06:56:54.505Z,500.00
2023-05-14T06:57:54.465Z,501.00
2023-05-14T06:58:54.449Z,505.00
2023-05-14T06:59:54.436Z,504.00
2023-05-14T07:00:54.416Z,502.00
2023-05-14T07:01:54.503Z,502.00
2023-05-14T07:02:54.435Z,500.00
2023-05-14T07:03:54.457Z,506.00
2023-05-14T07:04:54.370Z,500.00
2023-05-14T07:05:54.359Z,505.00
2023-05-14T07:06:54.353Z,503.00
2023-05-14T07:07:54.337Z,503.00
2023-05-14T07:08:54.328Z,501.00
2023-05-14T07:09:54.320Z,505.00
2023-05-14T07:10:54.320Z,501.00
2023-05-14T07:11:54.318Z,503.00
2023-05-14T07:12:54.318Z,504.00
2023-05-14T07:13:54.330Z,500.00
2023-05-14T07:14:54.943Z,503.00
2023-05-14T07:15:54.453Z,502.00
2023-05-14T07:16:54.363Z,504.00
2023-05-14T07:17:54.372Z,506.00
2023-05-14T07:18:54.391Z,504.00
2023-05-14T07:19:54.326Z,501.00
2023-05-14T07:20:54.327Z,502.00
2023-05-14T07:21:54.324Z,500.00
2023-05-14T07:22:54.339Z,502.00
2023-05-14T07:23:54.329Z,502.00
2023-05-14T07:24:54.322Z,503.00
2023-05-14T07:25:54.329Z,503.00
2023-05-14T07:26:54.304Z,501.00
2023-05-14T07:27:54.282Z,502.00
2023-05-14T07:28:54.289Z,500.00
2023-05-14T07:29:54.291Z,502.00
2023-05-14T07:30:54.303Z,502.00
2023-05-14T07:31:54.290Z,502.00
2023-05-14T07:32:54.340Z,503.00
2023-05-14T07:33:54.284Z,503.00
2023-05-14T07:34:54.344Z,502.00
2023-05-14T07:35:54.951Z,502.00
2023-05-14T07:36:54.383Z,501.00
2023-05-14T07:37:54.392Z,503.00
2023-05-14T07:38:54.415Z,501.00
2023-05-14T07:39:54.453Z,502.00
2023-05-14T07:40:54.475Z,501.00
2023-05-14T07:41:54.971Z,502.00
2023-05-14T07:42:54.549Z,503.00
2023-05-14T07:43:54.599Z,504.00
2023-05-14T07:44:54.645Z,501.00
2023-05-14T07:45:54.704Z,501.00
2023-05-14T07:46:54.784Z,501.00
2023-05-14T07:47:54.889Z,502.00
2023-05-14T07:48:54.859Z,505.00
2023-05-14T07:49:54.907Z,502.00
2023-05-14T07:50:54.970Z,500.00
2023-05-14T07:51:55.048Z,500.00
2023-05-14T07:52:55.963Z,503.00
2023-05-14T07:53:55.208Z,502.00
2023-05-14T07:54:55.204Z,501.00
2023-05-14T07:55:55.264Z,501.00
2023-05-14T07:56:55.316Z,502.00
2023-05-14T07:57:55.367Z,504.00
2023-05-14T07:58:55.425Z,506.00
2023-05-14T07:59:55.486Z,505.00
2023-05-14T08:00:55.555Z,504.00
2023-05-14T08:01:55.623Z,501.00
2023-05-14T08:02:55.792Z,503.00
2023-05-14T08:03:55.769Z,500.00
2023-05-14T08:04:55.738Z,502.00
2023-05-14T08:05:55.788Z,502.00
2023-05-14T08:06:55.851Z,503.00
2023-05-14T08:07:55.878Z,501.00
2023-05-14T08:08:55.868Z,503.00
2023-05-14T08:09:55.850Z,504.00
2023-05-14T08:10:55.874Z,500.00
2023-05-14T08:11:55.830Z,500.00
2023-05-14T08:12:55.839Z,502.00
2023-05-14T08:13:55.812Z,503.00
2023-05-14T08:14:55.805Z,501.00
2023-05-14T08:15:55.802Z,503.00
2023-05-14T08:16:55.951Z,504.00
2023-05-14T08:17:55.886Z,502.00
2023-05-14T08:18:55.894Z,503.00
2023-05-14T08:19:55.854Z,501.00
2023-05-14T08:20:55.880Z,505.00
2023-05-14T08:21:55.881Z,505.00
2023-05-14T08:22:55.884Z,506.00
2023-05-14T08:23:55.902Z,504.00
2023-05-14T08:24:55.914Z,503.00
2023-05-14T08:25:55.926Z,501.00
2023-05-14T08:26:56.032Z,504.00
2023-05-14T08:27:56.009Z,511.00
2023-05-14T08:28:56.046Z,509.00
2023-05-14T08:29:56.096Z,505.00
2023-05-14T08:30:56.175Z,505.00
2023-05-14T08:31:56.205Z,508.00
2023-05-14T08:32:56.302Z,506.00
2023-05-14T08:33:56.292Z,506.00
2023-05-14T08:34:56.336Z,509.00
2023-05-14T08:35:56.387Z,509.00
2023-05-14T08:36:56.440Z,509.00
2023-05-14T08:37:56.498Z,509.00
2023-05-14T08:38:56.580Z,500.00
2023-05-14T08:39:56.595Z,513.00
2023-05-14T08:40:56.649Z,510.00
2023-05-14T08:41:56.705Z,507.00
2023-05-14T08:42:56.761Z,511.00
2023-05-14T08:43:56.798Z,507.00
2023-05-14T08:44:56.864Z,511.00
2023-05-14T08:45:56.903Z,500.00
2023-05-14T08:46:56.961Z,513.00
2023-05-14T08:47:57.121Z,505.00
2023-05-14T08:48:57.063Z,513.00
2023-05-14T08:49:57.134Z,512.00
2023-05-14T08:50:57.144Z,507.00
2023-05-14T08:51:57.167Z,512.00
2023-05-14T08:52:57.220Z,512.00
2023-05-14T08:53:57.986Z,512.00
2023-05-14T08:54:57.313Z,508.00
2023-05-14T08:55:57.994Z,512.00
2023-05-14T08:56:57.391Z,512.00
2023-05-14T08:57:57.448Z,515.00
2023-05-14T08:58:57.479Z,510.00
2023-05-14T08:59:57.524Z,512.00
2023-05-14T09:00:57.573Z,514.00
2023-05-14T09:01:57.725Z,517.00
2023-05-14T09:02:57.818Z,516.00
2023-05-14T09:03:57.735Z,512.00
2023-05-14T09:04:57.742Z,511.00
2023-05-14T09:05:59.887Z,516.00
2023-05-14T09:06:57.831Z,519.00
2023-05-14T09:07:57.872Z,514.00
2023-05-14T09:08:57.917Z,511.00
2023-05-14T09:09:57.990Z,513.00
2023-05-14T09:10:58.027Z,517.00
2023-05-14T09:11:58.056Z,513.00
2023-05-14T09:12:58.093Z,517.00
2023-05-14T09:13:58.147Z,516.00
2023-05-14T09:14:58.232Z,522.00
2023-05-14T09:15:58.298Z,519.00
2023-05-14T09:16:58.313Z,514.00
2023-05-14T09:17:58.447Z,517.00
2023-05-14T09:18:58.474Z,522.00
2023-05-14T09:19:58.426Z,521.00
2023-05-14T09:20:58.483Z,522.00
2023-05-14T09:21:58.547Z,519.00
2023-05-14T09:22:58.572Z,522.00
2023-05-14T09:23:58.604Z,524.00
2023-05-14T09:24:58.629Z,522.00
2023-05-14T09:25:58.681Z,525.00
2023-05-14T09:26:58.752Z,517.00
2023-05-14T09:27:59.114Z,523.00
2023-05-14T09:28:58.822Z,528.00
2023-05-14T09:29:58.864Z,526.00
2023-05-14T09:30:58.895Z,516.00
2023-05-14T09:31:58.998Z,522.00
2023-05-14T09:32:59.057Z,520.00
2023-05-14T09:33:59.029Z,527.00
2023-05-14T09:34:59.070Z,520.00
2023-05-14T09:35:59.137Z,518.00
2023-05-14T09:36:59.193Z,523.00
2023-05-14T09:37:59.204Z,524.00
2023-05-14T09:38:59.258Z,523.00
2023-05-14T09:39:59.389Z,525.00
2023-05-14T09:40:59.364Z,525.00
2023-05-14T09:41:59.422Z,526.00
2023-05-14T09:42:59.456Z,520.00
2023-05-14T09:43:59.506Z,528.00
2023-05-14T09:44:59.555Z,522.00
2023-05-14T09:45:59.609Z,525.00
2023-05-14T09:46:59.699Z,524.00
2023-05-14T09:47:59.784Z,520.00
2023-05-14T09:48:59.761Z,522.00
2023-05-14T09:49:59.807Z,527.00
2023-05-14T09:50:59.863Z,523.00
2023-05-14T09:51:59.918Z,521.00
2023-05-14T09:52:59.956Z,521.00
2023-05-14T09:54:00.007Z,529.00
2023-05-14T09:55:00.054Z,525.00
2023-05-14T09:56:00.117Z,525.00
2023-05-14T09:57:00.162Z,527.00
2023-05-14T09:58:00.191Z,529.00
2023-05-14T09:59:00.248Z,524.00
2023-05-14T10:00:00.360Z,524.00
2023-05-14T10:01:00.386Z,523.00
2023-05-14T10:02:00.411Z,524.00
2023-05-14T10:03:00.548Z,527.00
2023-05-14T10:04:00.601Z,524.00
2023-05-14T10:05:00.526Z,525.00
2023-05-14T10:06:00.560Z,529.00
2023-05-14T10:07:00.603Z,532.00
2023-05-14T10:08:00.656Z,529.00
2023-05-14T10:09:00.703Z,527.00
2023-05-14T10:10:00.750Z,529.00
2023-05-14T10:11:00.778Z,529.00
2023-05-14T10:12:00.837Z,528.00
2023-05-14T10:13:00.902Z,528.00
2023-05-14T10:14:00.943Z,527.00
2023-05-14T10:15:01.154Z,523.00
2023-05-14T10:16:01.115Z,528.00
2023-05-14T10:17:01.130Z,533.00
2023-05-14T10:18:01.218Z,531.00
2023-05-14T10:19:01.217Z,531.00
2023-05-14T10:20:01.268Z,531.00
2023-05-14T10:21:01.253Z,530.00
2023-05-14T10:22:01.292Z,530.00
2023-05-14T10:23:01.338Z,532.00
2023-05-14T10:24:01.392Z,529.00
2023-05-14T10:25:01.421Z,533.00
2023-05-14T10:26:01.471Z,532.00
2023-05-14T10:27:01.519Z,525.00
2023-05-14T10:28:01.546Z,528.00
2023-05-14T10:29:01.593Z,528.00
2023-05-14T10:30:01.614Z,530.00
2023-05-14T10:31:01.710Z,527.00
2023-05-14T10:32:01.694Z,536.00
2023-05-14T10:33:01.768Z,533.00
2023-05-14T10:34:01.784Z,533.00
2023-05-14T10:35:01.812Z,535.00
2023-05-14T10:36:01.832Z,536.00
2023-05-14T10:37:01.908Z,532.00
2023-05-14T10:38:01.907Z,527.00
2023-05-14T10:39:01.951Z,530.00
2023-05-14T10:40:02.016Z,536.00
2023-05-14T10:41:02.014Z,530.00
2023-05-14T10:42:02.051Z,533.00
2023-05-14T10:43:02.093Z,531.00
2023-05-14T10:44:02.126Z,536.00
2023-05-14T10:45:02.199Z,537.00
2023-05-14T10:46:02.217Z,532.00
2023-05-14T10:47:02.285Z,535.00
2023-05-14T10:48:02.351Z,534.00
2023-05-14T10:49:02.340Z,535.00
2023-05-14T10:50:02.386Z,531.00
2023-05-14T10:51:02.514Z,529.00
2023-05-14T10:52:02.454Z,535.00
2023-05-14T10:53:02.550Z,534.00
2023-05-14T10:54:02.549Z,533.00
2023-05-14T10:55:03.701Z,531.00
2023-05-14T10:56:02.620Z,529.00
2023-05-14T10:57:02.680Z,531.00
2023-05-14T10:58:02.705Z,535.00
2023-05-14T10:59:02.744Z,527.00
2023-05-14T11:00:02.787Z,534.00
2023-05-14T11:01:02.838Z,534.00
2023-05-14T11:02:02.890Z,533.00
2023-05-14T11:03:02.924Z,534.00
2023-05-14T11:04:03.024Z,533.00
2023-05-14T11:05:02.986Z,536.00
2023-05-14T11:06:03.029Z,528.00
2023-05-14T11:07:03.070Z,533.00
2023-05-14T11:08:03.153Z,535.00
2023-05-14T11:09:03.137Z,530.00
2023-05-14T11:10:03.183Z,532.00
2023-05-14T11:11:04.057Z,523.00
2023-05-14T11:12:03.273Z,534.00
2023-05-14T11:13:03.314Z,527.00
2023-05-14T11:14:03.327Z,529.00
2023-05-14T11:15:03.378Z,525.00
2023-05-14T11:16:15.044Z,529.00
2023-05-14T11:17:04.506Z,529.00
2023-05-14T11:18:03.436Z,530.00
2023-05-14T11:19:03.612Z,531.00
2023-05-14T11:20:03.364Z,531.00
2023-05-14T11:21:03.384Z,535.00
2023-05-14T11:22:03.331Z,526.00
2023-05-14T11:23:03.328Z,532.00
2023-05-14T11:24:03.307Z,527.00
2023-05-14T11:25:03.300Z,527.00
2023-05-14T11:26:03.405Z,526.00
2023-05-14T11:27:03.324Z,531.00
2023-05-14T11:28:03.366Z,531.00
2023-05-14T11:29:03.410Z,528.00
2023-05-14T11:30:03.442Z,526.00
2023-05-14T11:31:03.474Z,526.00
2023-05-14T11:32:03.583Z,525.00
2023-05-14T11:33:03.590Z,526.00
2023-05-14T11:34:03.681Z,531.00
2023-05-14T11:35:03.653Z,528.00
2023-05-14T11:36:03.691Z,523.00
2023-05-14T11:37:03.743Z,528.00
2023-05-14T11:38:03.797Z,526.00
2023-05-14T11:39:03.846Z,528.00
2023-05-14T11:40:03.912Z,528.00
2023-05-14T11:41:03.964Z,532.00
2023-05-14T11:42:04.027Z,529.00
2023-05-14T11:43:04.081Z,530.00
2023-05-14T11:44:04.110Z,526.00
2023-05-14T11:45:05.053Z,530.00
2023-05-14T11:47:04.262Z,529.00
2023-05-14T11:48:04.354Z,528.00
2023-05-14T11:49:04.377Z,525.00
2023-05-14T11:50:04.418Z,525.00
2023-05-14T11:51:04.469Z,527.00
2023-05-14T11:52:04.644Z,527.00
2023-05-14T11:53:04.573Z,530.00
2023-05-14T11:54:04.616Z,525.00
2023-05-14T11:55:04.664Z,531.00
2023-05-14T11:56:04.954Z,533.00
2023-05-14T11:57:04.767Z,525.00
2023-05-14T11:58:04.824Z,533.00
2023-05-14T11:59:04.875Z,531.00
2023-05-14T12:00:04.896Z,528.00
2023-05-14T12:01:04.979Z,531.00
2023-05-14T12:02:05.031Z,533.00
2023-05-14T12:03:05.112Z,530.00
2023-05-14T12:04:05.135Z,535.00
2023-05-14T12:05:05.102Z,529.00
2023-05-14T12:06:05.213Z,533.00
2023-05-14T12:07:05.203Z,530.00
2023-05-14T12:08:05.270Z,532.00
2023-05-14T12:09:05.311Z,529.00
2023-05-14T12:10:05.336Z,532.00
2023-05-14T12:11:05.379Z,534.00
2023-05-14T12:12:05.429Z,531.00
2023-05-14T12:13:05.482Z,533.00
2023-05-14T12:14:05.574Z,524.00
2023-05-14T12:15:05.547Z,528.00
2023-05-14T12:16:05.684Z,533.00
2023-05-14T12:17:05.604Z,530.00
2023-05-14T12:18:16.916Z,532.00
2023-05-14T12:19:06.690Z,532.00
2023-05-14T12:20:05.620Z,533.00
2023-05-14T12:21:05.612Z,534.00
2023-05-14T12:22:05.577Z,534.00
2023-05-14T12:23:06.078Z,534.00
2023-05-14T12:24:05.544Z,536.00
2023-05-14T12:25:05.537Z,536.00
2023-05-14T12:26:06.942Z,533.00
2023-05-14T12:27:05.619Z,533.00
2023-05-14T12:28:05.677Z,534.00
2023-05-14T12:29:05.735Z,530.00
2023-05-14T12:30:20.786Z,534.00
2023-05-14T12:31:06.907Z,535.00